This is the latest recevied weather packets stored in our database for station/object N5YHF. If no packets are shown the sender has not sent any weather packets the latest 10 day(s).
| Time | Temp. | Humidity | Pressure | Rain* | Wind** | Luminosity | Snow |
|---|---|---|---|---|---|---|---|
| 1778065521 | 23.89° C | 87% | 1008.3 hPa | 0 mm | - | - | - |
| 1778057726 | 23.89° C | 87% | 1006.9 hPa | 0 mm | - | - | - |
| 1778049635 | 24.44° C | 85% | 1007.5 hPa | 0 mm | - | - | - |
| 1778049023 | 24.44° C | 85% | 1007.2 hPa | 0 mm | - | - | - |
| 1778048434 | 24.44° C | 86% | 1007.5 hPa | 0 mm | - | - | - |
| 1778045419 | 24.44° C | 86% | 1007.5 hPa | 0 mm | - | - | - |
| 1778035824 | 26.11° C | 79% | 1006.4 hPa | 0 mm | - | - | - |
| 1778034616 | 26.11° C | 76% | 1005.9 hPa | 0 mm | - | - | - |
| 1778032819 | 26.67° C | 75% | 1005.4 hPa | 0 mm | - | - | - |
| 1778029820 | 27.22° C | 72% | 1005.5 hPa | 0 mm | - | - | - |
| 1778026228 | 28.33° C | 67% | 1005.1 hPa | 0 mm | - | - | - |
| 1778020844 | 28.89° C | 65% | 1004.6 hPa | 0 mm | - | - | - |
| 1778020234 | 29.44° C | 64% | 1004.7 hPa | 0 mm | - | - | - |
| 1778017235 | 28.89° C | 64% | 1005.2 hPa | 0 mm | - | - | - |
| 1778016625 | 28.89° C | 65% | 1005.2 hPa | 0 mm | - | - | - |
| 1778016035 | 28.89° C | 64% | 1005.5 hPa | 0 mm | - | - | - |
| 1778011819 | 28.33° C | 67% | 1006.3 hPa | 0 mm | - | - | - |
| 1778005521 | 26.11° C | 74% | 1007.5 hPa | 0 mm | - | - | - |
| 1778004931 | 26.11° C | 75% | 1007.4 hPa | 0 mm | - | - | - |
| 1778002528 | 25° C | 79% | 1008 hPa | 0 mm | - | - | - |
| 1778001938 | 24.44° C | 79% | 1008 hPa | 0 mm | - | - | - |
| 1777999518 | 23.33° C | 83% | 1008 hPa | 0 mm | - | - | - |
| 1777997726 | 22.78° C | 85% | 1008.1 hPa | 0 mm | - | - | - |
| 1777993535 | 22.22° C | 86% | 1007.9 hPa | 0 mm | - | - | - |
| 1777992316 | 22.22° C | 86% | 1007.7 hPa | 0 mm | - | - | - |
* Rain latest hour (hover to see other rain measurements)
** Current wind speed in m/s (hover to see current wind gust speed)